createdAt,value
2018-12-29T00:00:58.814Z,59.87
2018-12-29T00:03:39.975Z,73.50
2018-12-29T00:06:21.749Z,64.43
2018-12-29T00:09:03.152Z,62.60
2018-12-29T00:11:44.256Z,63.20
2018-12-29T00:14:24.969Z,68.47
2018-12-29T00:17:06.676Z,58.97
2018-12-29T00:19:48.282Z,67.93
2018-12-29T00:22:29.558Z,63.20
2018-12-29T00:25:10.706Z,69.17
2018-12-29T00:27:51.956Z,69.87
2018-12-29T00:30:32.624Z,64.10
2018-12-29T00:33:13.863Z,66.90
2018-12-29T00:35:55.190Z,59.77
2018-12-29T00:38:25.100Z,68.73
2018-12-29T00:40:57.558Z,57.97
2018-12-29T00:43:46.036Z,65.67
2018-12-29T00:46:35.207Z,69.40
2018-12-29T00:49:23.962Z,60.00
2018-12-29T00:52:12.814Z,69.13
2018-12-29T00:55:01.579Z,63.40
2018-12-29T00:57:50.098Z,71.20
2018-12-29T01:00:39.370Z,68.30
2018-12-29T01:03:27.948Z,65.20
2018-12-29T01:06:19.618Z,81.50
2018-12-29T01:09:08.543Z,72.30
2018-12-29T01:11:57.206Z,64.60
2018-12-29T01:14:45.885Z,70.57
2018-12-29T01:17:34.850Z,72.70
2018-12-29T01:20:04.424Z,62.87
2018-12-29T01:22:46.029Z,71.80
2018-12-29T01:25:28.081Z,70.03
2018-12-29T01:28:09.583Z,71.93
2018-12-29T01:30:50.875Z,78.33
2018-12-29T01:33:32.797Z,66.23
2018-12-29T01:36:14.183Z,74.10
2018-12-29T01:38:55.896Z,74.23
2018-12-29T01:41:37.469Z,64.50
2018-12-29T01:44:18.851Z,72.53
2018-12-29T01:47:00.342Z,68.93
2018-12-29T01:49:41.926Z,64.23
2018-12-29T01:52:12.024Z,69.80
2018-12-29T01:55:00.596Z,62.83
2018-12-29T01:57:49.529Z,72.33
2018-12-29T02:00:38.635Z,61.40
2018-12-29T02:03:27.126Z,77.47
2018-12-29T02:06:08.649Z,72.70
2018-12-29T02:08:50.448Z,65.43
2018-12-29T02:11:31.782Z,63.30
2018-12-29T02:14:13.245Z,68.77
2018-12-29T02:16:54.960Z,59.03
2018-12-29T02:19:36.631Z,66.10
2018-12-29T02:22:18.597Z,57.30
2018-12-29T02:24:59.673Z,50.13
2018-12-29T02:27:41.235Z,58.67
2018-12-29T02:30:22.480Z,61.13
2018-12-29T02:33:04.003Z,51.23
2018-12-29T02:35:46.279Z,58.20
2018-12-29T02:38:27.309Z,53.57
2018-12-29T02:41:09.095Z,58.83
2018-12-29T02:46:33.729Z,49.63
2018-12-29T02:49:15.266Z,51.03
2018-12-29T02:51:56.111Z,50.50
2018-12-29T02:54:38.024Z,51.27
2018-12-29T02:57:19.551Z,51.60
2018-12-29T03:00:01.048Z,56.30
2018-12-29T03:02:42.586Z,54.87
2018-12-29T03:08:06.590Z,54.10
2018-12-29T03:10:48.219Z,42.97
2018-12-29T03:13:29.462Z,58.73
2018-12-29T03:16:11.875Z,56.50
2018-12-29T03:18:53.121Z,56.90
2018-12-29T03:21:34.928Z,60.53
2018-12-29T03:24:16.340Z,52.77
2018-12-29T03:26:57.418Z,57.63
2018-12-29T03:29:38.995Z,54.80
2018-12-29T03:35:26.150Z,49.07
2018-12-29T03:38:14.343Z,47.43
2018-12-29T03:41:03.874Z,54.47
2018-12-29T03:43:54.524Z,49.90
2018-12-29T03:46:43.440Z,56.30
2018-12-29T03:49:32.201Z,60.33
2018-12-29T03:52:20.956Z,61.93
2018-12-29T03:55:09.700Z,54.40
2018-12-29T03:58:05.971Z,55.83
2018-12-29T04:00:54.667Z,58.93
2018-12-29T04:03:43.639Z,60.40
2018-12-29T04:06:32.535Z,68.17
2018-12-29T04:09:14.121Z,55.17
2018-12-29T04:11:55.689Z,51.83
2018-12-29T04:17:20.315Z,61.17
2018-12-29T04:20:02.509Z,63.93
2018-12-29T04:22:44.402Z,52.40
2018-12-29T04:25:15.370Z,64.03
2018-12-29T04:28:04.333Z,53.23
2018-12-29T04:30:53.054Z,57.43
2018-12-29T04:33:41.291Z,52.60
2018-12-29T04:36:29.478Z,53.07
2018-12-29T04:39:17.970Z,59.43
2018-12-29T04:42:06.182Z,59.23
2018-12-29T04:44:54.634Z,56.50
2018-12-29T04:47:42.850Z,53.33
2018-12-29T04:50:31.083Z,45.70
2018-12-29T04:53:19.619Z,54.93
2018-12-29T04:56:08.180Z,62.27
2018-12-29T04:58:56.402Z,52.60
2018-12-29T05:04:51.899Z,58.10
2018-12-29T05:07:40.091Z,58.40
2018-12-29T05:10:20.983Z,58.33
2018-12-29T05:13:02.245Z,56.77
2018-12-29T05:15:42.943Z,51.87
2018-12-29T05:18:23.398Z,61.90
2018-12-29T05:21:04.567Z,54.87
2018-12-29T05:23:45.827Z,53.70
2018-12-29T05:26:27.693Z,51.97
2018-12-29T05:29:08.567Z,49.80
2018-12-29T05:31:49.910Z,53.50
2018-12-29T05:34:30.624Z,51.03
2018-12-29T05:37:11.502Z,58.33
2018-12-29T05:39:52.932Z,40.53
2018-12-29T05:42:33.326Z,45.73
2018-12-29T05:45:14.368Z,48.33
2018-12-29T05:47:55.160Z,53.27
2018-12-29T05:50:36.176Z,51.73
2018-12-29T05:53:17.658Z,54.97
2018-12-29T05:55:58.103Z,54.70
2018-12-29T05:58:39.191Z,49.80
2018-12-29T06:01:20.084Z,51.07
2018-12-29T06:04:00.733Z,49.03
2018-12-29T06:06:42.495Z,61.37
2018-12-29T06:09:23.760Z,56.90
2018-12-29T06:12:04.300Z,54.07
2018-12-29T06:14:45.051Z,52.67
2018-12-29T06:17:26.149Z,55.07
2018-12-29T06:20:06.847Z,55.77
2018-12-29T06:22:47.791Z,54.60
2018-12-29T06:25:28.962Z,54.20
2018-12-29T06:28:09.684Z,61.83
2018-12-29T06:30:50.443Z,49.17
2018-12-29T06:33:31.592Z,53.93
2018-12-29T06:36:12.353Z,60.10
2018-12-29T06:38:52.987Z,56.47
2018-12-29T06:41:33.608Z,53.60
2018-12-29T06:44:14.400Z,69.50
2018-12-29T06:46:55.134Z,57.47
2018-12-29T06:49:36.579Z,60.83
2018-12-29T06:54:53.269Z,53.20
2018-12-29T06:57:34.306Z,56.10
2018-12-29T07:00:14.701Z,73.17
2018-12-29T07:02:56.170Z,53.13
2018-12-29T07:05:37.496Z,54.23
2018-12-29T07:08:18.716Z,59.53
2018-12-29T07:11:00.028Z,70.47
2018-12-29T07:13:41.235Z,56.60
2018-12-29T07:16:21.822Z,52.70
2018-12-29T07:19:02.783Z,59.90
2018-12-29T07:21:32.171Z,63.43
2018-12-29T07:24:20.956Z,52.27
2018-12-29T07:27:09.415Z,58.73
2018-12-29T07:29:50.227Z,51.83
2018-12-29T07:32:30.995Z,49.97
2018-12-29T07:35:11.717Z,53.57
2018-12-29T07:37:52.427Z,53.53
2018-12-29T07:40:33.942Z,55.63
2018-12-29T07:43:03.090Z,49.93
2018-12-29T07:45:51.878Z,56.10
2018-12-29T07:48:40.103Z,44.93
2018-12-29T07:51:28.295Z,61.43
2018-12-29T07:54:16.524Z,52.10
2018-12-29T07:57:04.996Z,57.13
2018-12-29T07:59:53.479Z,56.07
2018-12-29T08:02:41.939Z,56.90
2018-12-29T08:05:30.413Z,47.67
2018-12-29T08:08:18.896Z,56.10
2018-12-29T08:11:07.358Z,60.73
2018-12-29T08:13:55.567Z,51.27
2018-12-29T08:16:43.760Z,57.40
2018-12-29T08:19:31.970Z,56.73
2018-12-29T08:22:20.164Z,56.00
2018-12-29T08:25:08.388Z,58.30
2018-12-29T08:27:56.639Z,48.23
2018-12-29T08:30:37.036Z,58.50
2018-12-29T08:33:18.332Z,50.17
2018-12-29T08:35:59.187Z,61.27
2018-12-29T08:38:40.252Z,50.93
2018-12-29T08:41:20.873Z,47.80
2018-12-29T08:44:01.716Z,53.77
2018-12-29T08:46:42.551Z,54.47
2018-12-29T08:49:23.262Z,55.90
2018-12-29T08:52:04.376Z,54.23
2018-12-29T08:54:45.120Z,51.60
2018-12-29T08:57:25.947Z,59.50
2018-12-29T09:06:03.830Z,55.57
2018-12-29T09:08:44.908Z,56.13
2018-12-29T09:11:25.354Z,50.40
2018-12-29T09:14:06.338Z,61.97
2018-12-29T09:16:47.071Z,58.80
2018-12-29T09:19:27.716Z,52.47
2018-12-29T09:22:08.624Z,52.23
2018-12-29T09:24:49.291Z,58.90
2018-12-29T09:27:30.655Z,49.97
2018-12-29T09:29:59.866Z,62.87
2018-12-29T09:32:29.254Z,62.00
2018-12-29T09:34:58.415Z,59.13
2018-12-29T09:37:27.851Z,60.30
2018-12-29T09:39:56.955Z,58.67
2018-12-29T09:42:26.326Z,49.53
2018-12-29T09:44:55.878Z,53.67
2018-12-29T09:47:24.975Z,57.17
2018-12-29T09:49:54.790Z,56.60
2018-12-29T09:52:43.243Z,55.60
2018-12-29T09:55:31.570Z,54.67
2018-12-29T09:58:19.823Z,49.97
2018-12-29T10:01:08.053Z,52.17
2018-12-29T10:03:56.246Z,51.53
2018-12-29T10:06:44.472Z,58.70
2018-12-29T10:09:32.761Z,57.80
2018-12-29T10:12:20.955Z,57.17
2018-12-29T10:15:09.181Z,53.47
2018-12-29T10:17:57.405Z,67.90
2018-12-29T10:20:45.680Z,63.47
2018-12-29T10:23:26.158Z,69.07
2018-12-29T10:26:07.519Z,57.20
2018-12-29T10:28:47.903Z,62.13
2018-12-29T10:31:28.795Z,57.13
2018-12-29T10:34:10.142Z,57.67
2018-12-29T10:36:51.171Z,54.53
2018-12-29T10:39:32.184Z,59.93
2018-12-29T10:42:12.870Z,55.90
2018-12-29T10:44:53.458Z,66.50
2018-12-29T10:47:34.970Z,64.53
2018-12-29T10:50:16.138Z,56.33
2018-12-29T10:52:57.023Z,60.30
2018-12-29T10:55:38.484Z,59.43
2018-12-29T10:58:19.292Z,62.27
2018-12-29T11:01:00.041Z,59.37
2018-12-29T11:03:41.162Z,59.73
2018-12-29T11:06:21.903Z,57.60
2018-12-29T11:09:03.007Z,56.87
2018-12-29T11:11:43.729Z,55.63
2018-12-29T11:14:24.632Z,52.53
2018-12-29T11:17:05.804Z,60.83
2018-12-29T11:19:46.410Z,51.60
2018-12-29T11:22:27.606Z,48.67
2018-12-29T11:25:08.494Z,56.33
2018-12-29T11:27:49.144Z,53.93
2018-12-29T11:30:30.027Z,46.43
2018-12-29T11:33:11.183Z,49.40
2018-12-29T11:35:52.175Z,45.80
2018-12-29T11:38:33.220Z,53.27
2018-12-29T11:41:14.902Z,49.20
2018-12-29T11:43:56.428Z,55.27
2018-12-29T11:46:37.131Z,58.67
2018-12-29T11:49:18.288Z,54.47
2018-12-29T11:51:47.906Z,52.57
2018-12-29T11:54:36.103Z,49.07
2018-12-29T11:57:24.323Z,49.53
2018-12-29T12:00:05.320Z,54.87
2018-12-29T12:02:46.211Z,55.23
2018-12-29T12:05:26.975Z,56.03
2018-12-29T12:08:07.844Z,55.90
2018-12-29T12:10:37.341Z,45.40
2018-12-29T12:13:25.647Z,57.70
2018-12-29T12:16:14.113Z,50.90
2018-12-29T12:19:02.775Z,53.10
2018-12-29T12:21:51.331Z,54.07
2018-12-29T12:24:39.515Z,46.60
2018-12-29T12:27:27.734Z,48.70
2018-12-29T12:30:17.668Z,53.17
2018-12-29T12:33:06.354Z,48.67
2018-12-29T12:35:54.623Z,52.10
2018-12-29T12:38:42.931Z,49.77
2018-12-29T12:41:31.238Z,49.13
2018-12-29T12:44:21.680Z,42.07
2018-12-29T12:47:09.979Z,50.70
2018-12-29T12:49:58.250Z,46.13
2018-12-29T12:52:47.152Z,52.77
2018-12-29T12:55:35.751Z,41.70
2018-12-29T12:58:25.711Z,45.90
2018-12-29T13:01:08.782Z,49.00
2018-12-29T13:03:49.782Z,47.43
2018-12-29T13:06:30.911Z,46.60
2018-12-29T13:09:11.969Z,48.07
2018-12-29T13:11:53.195Z,46.73
2018-12-29T13:14:34.711Z,52.00
2018-12-29T13:17:16.130Z,45.43
2018-12-29T13:19:56.887Z,44.90
2018-12-29T13:22:37.419Z,53.30
2018-12-29T13:25:18.292Z,49.07
2018-12-29T13:27:59.541Z,47.00
2018-12-29T13:30:40.250Z,44.03
2018-12-29T13:33:21.029Z,49.30
2018-12-29T13:36:02.549Z,44.87
2018-12-29T13:38:43.987Z,50.60
2018-12-29T13:41:25.287Z,44.47
2018-12-29T13:43:54.535Z,51.57
2018-12-29T13:46:44.451Z,49.27
2018-12-29T13:49:32.792Z,49.53
2018-12-29T13:52:21.109Z,45.43
2018-12-29T13:55:09.379Z,47.53
2018-12-29T13:57:57.691Z,47.00
2018-12-29T14:00:39.236Z,51.57
2018-12-29T14:03:20.088Z,50.30
2018-12-29T14:06:00.551Z,53.83
2018-12-29T14:08:41.582Z,50.63
2018-12-29T14:11:22.330Z,49.03
2018-12-29T14:14:02.971Z,47.63
2018-12-29T14:16:43.716Z,55.30
2018-12-29T14:19:24.681Z,54.00
2018-12-29T14:22:05.832Z,57.07
2018-12-29T14:24:47.479Z,58.83
2018-12-29T14:27:28.572Z,60.77
2018-12-29T14:30:09.072Z,56.77
2018-12-29T14:32:49.966Z,55.27
2018-12-29T14:35:31.063Z,61.60
2018-12-29T14:38:12.052Z,64.33
2018-12-29T14:40:52.972Z,57.47
2018-12-29T14:43:22.199Z,50.23
2018-12-29T14:46:12.888Z,58.60
2018-12-29T14:49:01.352Z,57.73
2018-12-29T14:51:51.323Z,64.97
2018-12-29T14:54:40.102Z,67.00
2018-12-29T14:57:28.616Z,61.53
2018-12-29T15:00:17.133Z,71.40
2018-12-29T15:02:48.294Z,54.90
2018-12-29T15:05:36.817Z,61.90
2018-12-29T15:08:25.115Z,61.20
2018-12-29T15:11:13.320Z,59.63
2018-12-29T15:14:01.655Z,61.13
2018-12-29T15:16:42.310Z,53.20
2018-12-29T15:19:11.821Z,57.27
2018-12-29T15:22:00.343Z,54.03
2018-12-29T15:24:48.571Z,55.50
2018-12-29T15:27:37.151Z,55.43
2018-12-29T15:30:25.435Z,52.80
2018-12-29T15:33:14.128Z,60.13
2018-12-29T15:36:02.719Z,49.83
2018-12-29T15:38:51.984Z,61.00
2018-12-29T15:41:41.464Z,55.53
2018-12-29T15:44:30.003Z,54.97
2018-12-29T15:47:11.323Z,57.77
2018-12-29T15:49:52.620Z,62.93
2018-12-29T15:52:34.093Z,61.60
2018-12-29T15:55:15.252Z,57.80
2018-12-29T15:57:56.223Z,54.90
2018-12-29T16:00:36.814Z,57.50
2018-12-29T16:03:18.094Z,52.80
2018-12-29T16:05:59.430Z,62.80
2018-12-29T16:08:40.919Z,59.73
2018-12-29T16:11:26.109Z,58.23
2018-12-29T16:13:52.818Z,54.30
2018-12-29T16:16:41.075Z,56.13
2018-12-29T16:19:10.270Z,64.30
2018-12-29T16:21:39.476Z,58.33
2018-12-29T16:24:09.288Z,66.43
2018-12-29T16:26:57.883Z,56.93
2018-12-29T16:29:27.351Z,55.87
2018-12-29T16:31:56.803Z,55.37
2018-12-29T16:34:25.963Z,53.57
2018-12-29T16:37:14.631Z,49.67
2018-12-29T16:40:04.686Z,56.20
2018-12-29T16:42:54.948Z,51.17
2018-12-29T16:45:38.359Z,51.07
2018-12-29T16:48:19.758Z,60.90
2018-12-29T16:51:01.180Z,59.53
2018-12-29T16:53:42.825Z,43.97
2018-12-29T16:56:23.360Z,54.70
2018-12-29T16:59:03.946Z,52.37
2018-12-29T17:01:33.200Z,60.73
2018-12-29T17:04:02.360Z,55.00
2018-12-29T17:06:32.702Z,48.30
2018-12-29T17:09:21.255Z,49.33
2018-12-29T17:11:52.520Z,48.67
2018-12-29T17:14:21.344Z,46.70
2018-12-29T17:16:50.526Z,48.07
2018-12-29T17:19:19.750Z,46.77
2018-12-29T17:22:01.375Z,52.27
2018-12-29T17:24:41.871Z,45.10
2018-12-29T17:27:23.421Z,51.10
2018-12-29T17:30:04.159Z,46.87
2018-12-29T17:32:44.887Z,39.93
2018-12-29T17:35:26.182Z,51.33
2018-12-29T17:38:07.064Z,49.57
2018-12-29T17:40:48.787Z,53.80
2018-12-29T17:43:29.849Z,44.83
2018-12-29T17:46:11.209Z,38.63
2018-12-29T17:48:40.547Z,42.40
2018-12-29T17:51:28.778Z,46.03
2018-12-29T17:54:17.034Z,40.13
2018-12-29T17:56:46.768Z,46.13
2018-12-29T17:59:35.609Z,39.00
2018-12-29T18:02:23.928Z,40.63
2018-12-29T18:05:12.191Z,43.27
2018-12-29T18:08:00.515Z,48.47
2018-12-29T18:10:48.998Z,40.77
2018-12-29T18:13:38.946Z,42.33
2018-12-29T18:16:27.490Z,41.43
2018-12-29T18:19:15.788Z,45.03
2018-12-29T18:22:04.346Z,47.70
2018-12-29T18:24:52.915Z,39.53
2018-12-29T18:27:41.196Z,48.27
2018-12-29T18:30:29.513Z,42.97
2018-12-29T18:33:17.843Z,52.50
2018-12-29T18:36:06.631Z,41.87
2018-12-29T18:38:54.930Z,41.30
2018-12-29T18:41:43.667Z,48.60
2018-12-29T18:44:33.608Z,44.17
2018-12-29T18:47:22.160Z,38.53
2018-12-29T18:50:03.431Z,39.77
2018-12-29T18:52:43.982Z,37.23
2018-12-29T18:55:24.958Z,34.03
2018-12-29T18:58:06.383Z,37.20
2018-12-29T19:00:47.223Z,32.37
2018-12-29T19:03:28.407Z,37.93
2018-12-29T19:06:09.542Z,36.37
2018-12-29T19:08:50.680Z,36.70
2018-12-29T19:11:31.496Z,37.10
2018-12-29T19:14:12.836Z,41.77
2018-12-29T19:16:54.822Z,29.33
2018-12-29T19:19:35.815Z,37.00
2018-12-29T19:22:16.643Z,33.83
2018-12-29T19:24:57.698Z,35.13
2018-12-29T19:27:38.856Z,38.73
2018-12-29T19:30:20.280Z,35.57
2018-12-29T19:33:02.063Z,32.53
2018-12-29T19:35:43.058Z,35.00
2018-12-29T19:38:24.588Z,34.50
2018-12-29T19:41:05.970Z,44.87
2018-12-29T19:43:47.419Z,36.30
2018-12-29T19:46:29.037Z,35.97
2018-12-29T19:49:10.430Z,38.70
2018-12-29T19:51:51.351Z,45.93
2018-12-29T19:54:20.994Z,44.77
2018-12-29T19:57:09.472Z,46.30
2018-12-29T19:59:59.943Z,52.07
2018-12-29T20:02:50.139Z,52.93
2018-12-29T20:05:39.156Z,45.47
2018-12-29T20:08:27.349Z,48.77
2018-12-29T20:11:15.825Z,51.40
2018-12-29T20:14:04.365Z,40.90
2018-12-29T20:16:52.661Z,44.90
2018-12-29T20:19:41.468Z,46.97
2018-12-29T20:22:10.599Z,45.47
2018-12-29T20:24:58.892Z,49.10
2018-12-29T20:27:47.421Z,45.27
2018-12-29T20:30:35.997Z,46.37
2018-12-29T20:33:24.341Z,41.70
2018-12-29T20:36:13.151Z,37.23
2018-12-29T20:39:01.461Z,50.60
2018-12-29T20:41:49.756Z,47.23
2018-12-29T20:44:38.102Z,45.47
2018-12-29T20:47:26.643Z,46.67
2018-12-29T20:50:14.955Z,51.80
2018-12-29T20:53:03.122Z,48.43
2018-12-29T20:55:51.448Z,52.50
2018-12-29T20:58:41.378Z,49.07
2018-12-29T21:01:30.166Z,43.23
2018-12-29T21:04:18.436Z,48.07
2018-12-29T21:07:06.724Z,42.53
2018-12-29T21:09:55.311Z,50.27
2018-12-29T21:12:43.903Z,50.43
2018-12-29T21:15:32.103Z,59.37
2018-12-29T21:18:20.322Z,50.77
2018-12-29T21:21:08.599Z,45.57
2018-12-29T21:23:57.274Z,46.50
2018-12-29T21:26:38.405Z,57.90
2018-12-29T21:29:19.460Z,46.10
2018-12-29T21:32:00.865Z,49.87
2018-12-29T21:34:41.907Z,55.10
2018-12-29T21:37:22.610Z,56.90
2018-12-29T21:40:03.335Z,50.03
2018-12-29T21:42:43.864Z,49.57
2018-12-29T21:45:25.003Z,51.93
2018-12-29T21:48:06.640Z,49.47
2018-12-29T21:50:48.728Z,52.90
2018-12-29T21:53:30.155Z,51.37
2018-12-29T21:56:10.851Z,44.13
2018-12-29T21:58:52.027Z,48.83
2018-12-29T22:01:33.366Z,50.57
2018-12-29T22:04:14.604Z,47.57
2018-12-29T22:06:55.696Z,50.93
2018-12-29T22:09:37.181Z,39.97
2018-12-29T22:12:18.627Z,43.93
2018-12-29T22:15:00.015Z,40.13
2018-12-29T22:17:40.994Z,33.70
2018-12-29T22:20:22.547Z,30.60
2018-12-29T22:23:03.569Z,26.23
2018-12-29T22:25:48.380Z,32.47
2018-12-29T22:28:27.555Z,24.63
2018-12-29T22:31:08.295Z,23.50
2018-12-29T22:33:49.364Z,26.40
2018-12-29T22:36:30.340Z,25.53
2018-12-29T22:39:10.884Z,22.43
2018-12-29T22:41:51.927Z,20.87
2018-12-29T22:44:32.767Z,19.07
2018-12-29T22:47:13.761Z,19.50
2018-12-29T22:49:54.704Z,23.00
2018-12-29T22:52:35.543Z,16.83
2018-12-29T22:55:16.359Z,17.10
2018-12-29T22:57:57.236Z,18.10
2018-12-29T23:00:42.390Z,18.23
2018-12-29T23:03:23.612Z,19.40
2018-12-29T23:06:05.285Z,20.00
2018-12-29T23:08:45.945Z,16.17
2018-12-29T23:11:26.949Z,18.13
2018-12-29T23:14:07.759Z,14.97
2018-12-29T23:16:48.313Z,19.60
2018-12-29T23:19:29.268Z,18.63
2018-12-29T23:22:09.752Z,18.87
2018-12-29T23:24:50.264Z,16.57
2018-12-29T23:27:31.227Z,18.47
2018-12-29T23:30:12.520Z,16.57
2018-12-29T23:32:53.690Z,19.00
2018-12-29T23:35:34.835Z,17.63
2018-12-29T23:38:15.892Z,18.73
2018-12-29T23:40:56.795Z,19.50
2018-12-29T23:43:37.504Z,15.70
2018-12-29T23:46:18.251Z,16.50
2018-12-29T23:48:58.945Z,15.40
2018-12-29T23:51:40.099Z,15.63
2018-12-29T23:54:21.329Z,14.03
2018-12-29T23:57:02.676Z,14.10
2018-12-29T23:59:43.767Z,12.40
